Terminal Aerodrome Forecast
Issued by NWS

Home | Current Version | Previous Version | Text Only | Print | Product List | Glossary On
Versions: 1 2 3 4 5 6 7 8 9 10 11 12 13 14 15 16 17 18 19 20 21 22 23 24 25 26 27 28 29
000
FTUS46 KLOX 291100
TAFLAX
TAF
KLAX 291128Z 2912/3018 VRB03KT P6SM SCT200
     FM292000 25012KT P6SM SKC
     FM300300 25006KT P6SM SKC
     FM301000 VRB03KT P6SM BKN007
     FM301600 VRB03KT P6SM SKC=

USA.gov is the U.S. government's official web portal to all federal, state and local government web resources and services.